sensor_id;sensor_type;location;lat;lon;timestamp;pressure;altitude;pressure_sealevel;temperature;humidity
36834;BME280;48003;52.084;5.224;2022-12-24T00:00:49;100608.0;;;12.37;81.64
36834;BME280;48003;52.084;5.224;2022-12-24T00:02:30;100609.0;;;12.38;81.33
36834;BME280;48003;52.084;5.224;2022-12-24T00:05:42;100615.0;;;12.33;81.58
36834;BME280;48003;52.084;5.224;2022-12-24T00:07:19;100612.0;;;12.09;82.41
36834;BME280;48003;52.084;5.224;2022-12-24T00:08:55;100614.0;;;12.15;82.37
36834;BME280;48003;52.084;5.224;2022-12-24T00:10:31;100621.0;;;12.21;81.98
36834;BME280;48003;52.084;5.224;2022-12-24T00:13:45;100619.0;;;12.39;81.2
36834;BME280;48003;52.084;5.224;2022-12-24T00:15:22;100620.0;;;12.24;81.75
36834;BME280;48003;52.084;5.224;2022-12-24T00:16:58;100630.0;;;12.11;82.18
36834;BME280;48003;52.084;5.224;2022-12-24T00:20:10;100625.0;;;12.22;82.04
36834;BME280;48003;52.084;5.224;2022-12-24T00:21:47;100630.0;;;12.34;80.97
36834;BME280;48003;52.084;5.224;2022-12-24T00:23:23;100646.0;;;12.16;81.37
36834;BME280;48003;52.084;5.224;2022-12-24T00:26:36;100635.0;;;12.21;81.99
36834;BME280;48003;52.084;5.224;2022-12-24T00:28:13;100640.0;;;11.99;81.98
36834;BME280;48003;52.084;5.224;2022-12-24T00:29:50;100640.0;;;12.07;82.22
36834;BME280;48003;52.084;5.224;2022-12-24T00:31:27;100643.0;;;12.1;81.66
36834;BME280;48003;52.084;5.224;2022-12-24T00:34:40;100638.0;;;12.47;79.91
36834;BME280;48003;52.084;5.224;2022-12-24T00:36:17;100655.0;;;12.19;80.73
36834;BME280;48003;52.084;5.224;2022-12-24T00:37:54;100658.0;;;11.81;82.74
36834;BME280;48003;52.084;5.224;2022-12-24T00:41:08;100655.0;;;11.97;81.91
36834;BME280;48003;52.084;5.224;2022-12-24T00:42:45;100690.0;;;12.11;81.75
36834;BME280;48003;52.084;5.224;2022-12-24T00:44:21;100676.0;;;11.97;82.27
36834;BME280;48003;52.084;5.224;2022-12-24T00:47:35;100673.0;;;12.03;81.5
36834;BME280;48003;52.084;5.224;2022-12-24T00:49:12;100673.0;;;12.14;80.55
36834;BME280;48003;52.084;5.224;2022-12-24T00:50:50;100674.0;;;11.95;81.78
36834;BME280;48003;52.084;5.224;2022-12-24T00:52:26;100680.0;;;11.98;81.37
36834;BME280;48003;52.084;5.224;2022-12-24T00:55:39;100686.0;;;12.21;80.11
36834;BME280;48003;52.084;5.224;2022-12-24T00:57:16;100688.0;;;12.0;80.86
36834;BME280;48003;52.084;5.224;2022-12-24T00:58:52;100691.0;;;11.94;81.49
36834;BME280;48003;52.084;5.224;2022-12-24T01:02:05;100689.0;;;12.15;80.22
36834;BME280;48003;52.084;5.224;2022-12-24T01:03:42;100697.0;;;12.09;80.91
36834;BME280;48003;52.084;5.224;2022-12-24T01:05:19;100702.0;;;11.86;81.3
36834;BME280;48003;52.084;5.224;2022-12-24T01:08:31;100697.0;;;12.09;80.38
36834;BME280;48003;52.084;5.224;2022-12-24T01:10:11;100706.0;;;11.81;81.45
36834;BME280;48003;52.084;5.224;2022-12-24T01:11:47;100706.0;;;11.54;82.26
36834;BME280;48003;52.084;5.224;2022-12-24T01:13:24;100718.0;;;11.41;83.13
36834;BME280;48003;52.084;5.224;2022-12-24T01:16:37;100717.0;;;11.67;82.01
36834;BME280;48003;52.084;5.224;2022-12-24T01:18:14;100715.0;;;11.54;82.56
36834;BME280;48003;52.084;5.224;2022-12-24T01:19:51;100733.0;;;11.47;83.01
36834;BME280;48003;52.084;5.224;2022-12-24T01:23:04;100726.0;;;11.72;82.19
36834;BME280;48003;52.084;5.224;2022-12-24T01:24:40;100736.0;;;11.93;80.61
36834;BME280;48003;52.084;5.224;2022-12-24T01:26:17;100738.0;;;11.87;80.5
36834;BME280;48003;52.084;5.224;2022-12-24T01:29:29;100743.0;;;12.03;79.69
36834;BME280;48003;52.084;5.224;2022-12-24T01:31:09;100743.0;;;12.08;79.44
36834;BME280;48003;52.084;5.224;2022-12-24T01:32:46;100741.0;;;11.63;81.61
36834;BME280;48003;52.084;5.224;2022-12-24T01:34:22;100744.0;;;11.83;80.66
36834;BME280;48003;52.084;5.224;2022-12-24T01:37:38;100753.0;;;11.96;79.91
36834;BME280;48003;52.084;5.224;2022-12-24T01:39:15;100756.0;;;11.47;81.41
36834;BME280;48003;52.084;5.224;2022-12-24T01:40:52;100748.0;;;11.38;81.91
36834;BME280;48003;52.084;5.224;2022-12-24T01:44:22;100750.0;;;11.67;81.14
36834;BME280;48003;52.084;5.224;2022-12-24T01:46:00;100752.0;;;11.57;81.47
36834;BME280;48003;52.084;5.224;2022-12-24T01:47:39;100762.0;;;11.79;80.49
36834;BME280;48003;52.084;5.224;2022-12-24T01:49:16;100768.0;;;11.57;80.91
36834;BME280;48003;52.084;5.224;2022-12-24T01:52:35;100765.0;;;11.68;80.75
36834;BME280;48003;52.084;5.224;2022-12-24T01:54:14;100768.0;;;11.53;81.19
36834;BME280;48003;52.084;5.224;2022-12-24T01:55:54;100769.0;;;11.3;81.87
36834;BME280;48003;52.084;5.224;2022-12-24T01:57:35;100774.0;;;11.89;79.58
36834;BME280;48003;52.084;5.224;2022-12-24T02:00:53;100780.0;;;11.61;80.36
36834;BME280;48003;52.084;5.224;2022-12-24T02:02:29;100776.0;;;11.57;81.3
36834;BME280;48003;52.084;5.224;2022-12-24T02:04:10;100780.0;;;11.67;80.31
36834;BME280;48003;52.084;5.224;2022-12-24T02:05:54;100785.0;;;11.83;79.75
36834;BME280;48003;52.084;5.224;2022-12-24T02:09:09;100785.0;;;11.53;80.38
36834;BME280;48003;52.084;5.224;2022-12-24T02:10:46;100785.0;;;11.61;80.77
36834;BME280;48003;52.084;5.224;2022-12-24T02:12:24;100789.0;;;11.71;80.61
36834;BME280;48003;52.084;5.224;2022-12-24T02:14:01;100797.0;;;11.62;80.09
36834;BME280;48003;52.084;5.224;2022-12-24T02:17:34;100796.0;;;11.68;79.94
36834;BME280;48003;52.084;5.224;2022-12-24T02:19:35;100796.0;;;11.32;81.27
36834;BME280;48003;52.084;5.224;2022-12-24T02:21:52;100805.0;;;11.44;81.53
36834;BME280;48003;52.084;5.224;2022-12-24T02:27:12;100820.0;;;11.32;82.7
36834;BME280;48003;52.084;5.224;2022-12-24T02:29:11;100816.0;;;11.37;82.09
36834;BME280;48003;52.084;5.224;2022-12-24T02:30:59;100813.0;;;11.46;81.41
36834;BME280;48003;52.084;5.224;2022-12-24T02:35:35;100809.0;;;11.57;80.66
36834;BME280;48003;52.084;5.224;2022-12-24T02:37:18;100816.0;;;11.16;82.61
36834;BME280;48003;52.084;5.224;2022-12-24T02:40:45;100812.0;;;11.16;82.99
36834;BME280;48003;52.084;5.224;2022-12-24T02:42:26;100816.0;;;10.97;82.94
36834;BME280;48003;52.084;5.224;2022-12-24T02:44:07;100808.0;;;11.3;82.05
36834;BME280;48003;52.084;5.224;2022-12-24T02:45:48;100813.0;;;11.28;81.92
36834;BME280;48003;52.084;5.224;2022-12-24T02:47:27;100812.0;;;11.37;81.27
36834;BME280;48003;52.084;5.224;2022-12-24T02:50:53;100810.0;;;11.28;81.72
36834;BME280;48003;52.084;5.224;2022-12-24T02:52:33;100817.0;;;11.33;81.41
36834;BME280;48003;52.084;5.224;2022-12-24T02:54:11;100825.0;;;11.11;82.31
36834;BME280;48003;52.084;5.224;2022-12-24T02:55:58;100826.0;;;11.38;81.31
36834;BME280;48003;52.084;5.224;2022-12-24T02:59:58;100822.0;;;11.43;80.98
36834;BME280;48003;52.084;5.224;2022-12-24T03:01:47;100828.0;;;11.54;80.42
36834;BME280;48003;52.084;5.224;2022-12-24T03:03:35;100835.0;;;11.26;81.63
36834;BME280;48003;52.084;5.224;2022-12-24T03:05:19;100830.0;;;11.52;80.77
36834;BME280;48003;52.084;5.224;2022-12-24T03:07:06;100832.0;;;11.5;80.86
36834;BME280;48003;52.084;5.224;2022-12-24T03:08:52;100830.0;;;11.5;80.95
36834;BME280;48003;52.084;5.224;2022-12-24T03:10:36;100830.0;;;11.28;81.64
36834;BME280;48003;52.084;5.224;2022-12-24T03:14:00;100833.0;;;11.02;82.47
36834;BME280;48003;52.084;5.224;2022-12-24T03:15:38;100831.0;;;11.08;83.03
36834;BME280;48003;52.084;5.224;2022-12-24T03:17:17;100826.0;;;11.41;81.66
36834;BME280;48003;52.084;5.224;2022-12-24T03:18:55;100830.0;;;11.45;81.66
36834;BME280;48003;52.084;5.224;2022-12-24T03:22:17;100834.0;;;11.3;82.29
36834;BME280;48003;52.084;5.224;2022-12-24T03:23:53;100837.0;;;11.29;82.89
36834;BME280;48003;52.084;5.224;2022-12-24T03:25:32;100840.0;;;11.5;82.23
36834;BME280;48003;52.084;5.224;2022-12-24T03:27:10;100840.0;;;11.45;82.51
36834;BME280;48003;52.084;5.224;2022-12-24T03:30:25;100848.0;;;11.38;83.2
36834;BME280;48003;52.084;5.224;2022-12-24T03:32:03;100852.0;;;10.89;85.82
36834;BME280;48003;52.084;5.224;2022-12-24T03:33:39;100857.0;;;11.19;85.15
36834;BME280;48003;52.084;5.224;2022-12-24T03:36:53;100851.0;;;11.43;84.31
36834;BME280;48003;52.084;5.224;2022-12-24T03:38:29;100852.0;;;11.6;83.14
36834;BME280;48003;52.084;5.224;2022-12-24T03:40:07;100855.0;;;11.13;85.18
36834;BME280;48003;52.084;5.224;2022-12-24T03:43:20;100866.0;;;11.28;85.65
36834;BME280;48003;52.084;5.224;2022-12-24T03:44:56;100855.0;;;11.58;84.39
36834;BME280;48003;52.084;5.224;2022-12-24T03:46:33;100857.0;;;11.49;85.04
36834;BME280;48003;52.084;5.224;2022-12-24T03:48:09;100858.0;;;11.5;85.35
36834;BME280;48003;52.084;5.224;2022-12-24T03:51:23;100868.0;;;11.24;86.4
36834;BME280;48003;52.084;5.224;2022-12-24T03:53:00;100866.0;;;11.15;87.21
36834;BME280;48003;52.084;5.224;2022-12-24T03:54:37;100859.0;;;11.48;86.29
36834;BME280;48003;52.084;5.224;2022-12-24T03:57:50;100863.0;;;11.65;85.54
36834;BME280;48003;52.084;5.224;2022-12-24T03:59:26;100867.0;;;11.65;85.76
36834;BME280;48003;52.084;5.224;2022-12-24T04:02:39;100860.0;;;11.74;85.4
36834;BME280;48003;52.084;5.224;2022-12-24T04:04:15;100861.0;;;11.52;86.49
36834;BME280;48003;52.084;5.224;2022-12-24T04:06:00;100860.0;;;11.49;86.48
36834;BME280;48003;52.084;5.224;2022-12-24T04:07:37;100872.0;;;11.22;87.97
36834;BME280;48003;52.084;5.224;2022-12-24T04:09:13;100871.0;;;11.46;87.34
36834;BME280;48003;52.084;5.224;2022-12-24T04:12:26;100873.0;;;11.72;86.45
36834;BME280;48003;52.084;5.224;2022-12-24T04:14:02;100873.0;;;11.41;86.96
36834;BME280;48003;52.084;5.224;2022-12-24T04:15:38;100867.0;;;11.64;86.84
36834;BME280;48003;52.084;5.224;2022-12-24T04:18:51;100860.0;;;11.58;86.9
36834;BME280;48003;52.084;5.224;2022-12-24T04:20:28;100867.0;;;11.39;87.57
36834;BME280;48003;52.084;5.224;2022-12-24T04:22:04;100872.0;;;11.59;87.09
36834;BME280;48003;52.084;5.224;2022-12-24T04:23:40;100874.0;;;11.9;85.6
36834;BME280;48003;52.084;5.224;2022-12-24T04:26:53;100885.0;;;11.43;87.16
36834;BME280;48003;52.084;5.224;2022-12-24T04:28:30;100877.0;;;11.82;86.03
36834;BME280;48003;52.084;5.224;2022-12-24T04:30:08;100880.0;;;11.65;86.29
36834;BME280;48003;52.084;5.224;2022-12-24T04:33:20;100880.0;;;11.52;87.59
36834;BME280;48003;52.084;5.224;2022-12-24T04:34:56;100878.0;;;11.93;85.42
36834;BME280;48003;52.084;5.224;2022-12-24T04:36:32;100883.0;;;11.94;85.05
36834;BME280;48003;52.084;5.224;2022-12-24T04:39:46;100887.0;;;11.98;85.05
36834;BME280;48003;52.084;5.224;2022-12-24T04:41:22;100900.0;;;11.79;85.69
36834;BME280;48003;52.084;5.224;2022-12-24T04:42:59;100903.0;;;11.33;88.05
36834;BME280;48003;52.084;5.224;2022-12-24T04:44:36;100896.0;;;11.37;87.9
36834;BME280;48003;52.084;5.224;2022-12-24T04:47:51;100893.0;;;11.48;87.24
36834;BME280;48003;52.084;5.224;2022-12-24T04:49:27;100892.0;;;11.7;86.94
36834;BME280;48003;52.084;5.224;2022-12-24T04:51:05;100892.0;;;11.82;86.08
36834;BME280;48003;52.084;5.224;2022-12-24T04:54:18;100887.0;;;11.83;86.09
36834;BME280;48003;52.084;5.224;2022-12-24T04:55:54;100900.0;;;11.68;86.55
36834;BME280;48003;52.084;5.224;2022-12-24T04:57:30;100899.0;;;12.12;85.01
36834;BME280;48003;52.084;5.224;2022-12-24T05:00:44;100905.0;;;12.12;84.6
36834;BME280;48003;52.084;5.224;2022-12-24T05:02:20;100908.0;;;11.84;85.4
36834;BME280;48003;52.084;5.224;2022-12-24T05:03:56;100912.0;;;11.52;87.25
36834;BME280;48003;52.084;5.224;2022-12-24T05:05:33;100916.0;;;11.64;87.39
36834;BME280;48003;52.084;5.224;2022-12-24T05:08:46;100906.0;;;11.67;86.81
36834;BME280;48003;52.084;5.224;2022-12-24T05:10:22;100901.0;;;11.84;86.47
36834;BME280;48003;52.084;5.224;2022-12-24T05:11:59;100907.0;;;11.64;86.93
36834;BME280;48003;52.084;5.224;2022-12-24T05:15:11;100901.0;;;11.75;86.65
36834;BME280;48003;52.084;5.224;2022-12-24T05:16:47;100902.0;;;11.84;86.29
36834;BME280;48003;52.084;5.224;2022-12-24T05:18:23;100905.0;;;12.04;85.92
36834;BME280;48003;52.084;5.224;2022-12-24T05:21:36;100909.0;;;11.49;88.03
36834;BME280;48003;52.084;5.224;2022-12-24T05:23:15;100908.0;;;11.86;86.93
36834;BME280;48003;52.084;5.224;2022-12-24T05:24:52;100914.0;;;11.54;88.44
36834;BME280;48003;52.084;5.224;2022-12-24T05:26:31;100915.0;;;11.6;88.4
36834;BME280;48003;52.084;5.224;2022-12-24T05:29:45;100909.0;;;11.94;87.4
36834;BME280;48003;52.084;5.224;2022-12-24T05:31:23;100907.0;;;11.95;87.11
36834;BME280;48003;52.084;5.224;2022-12-24T05:33:00;100915.0;;;11.89;87.11
36834;BME280;48003;52.084;5.224;2022-12-24T05:36:12;100917.0;;;12.1;86.62
36834;BME280;48003;52.084;5.224;2022-12-24T05:37:49;100918.0;;;11.87;87.2
36834;BME280;48003;52.084;5.224;2022-12-24T05:39:26;100941.0;;;11.65;88.03
36834;BME280;48003;52.084;5.224;2022-12-24T05:42:39;100926.0;;;11.78;88.58
36834;BME280;48003;52.084;5.224;2022-12-24T05:44:15;100924.0;;;11.72;88.63
36834;BME280;48003;52.084;5.224;2022-12-24T05:45:57;100916.0;;;11.94;88.0
36834;BME280;48003;52.084;5.224;2022-12-24T05:47:33;100912.0;;;12.11;86.93
36834;BME280;48003;52.084;5.224;2022-12-24T05:50:48;100918.0;;;11.9;87.74
36834;BME280;48003;52.084;5.224;2022-12-24T05:52:24;100926.0;;;11.64;89.35
36834;BME280;48003;52.084;5.224;2022-12-24T05:54:00;100924.0;;;11.75;88.95
36834;BME280;48003;52.084;5.224;2022-12-24T05:57:12;100922.0;;;11.95;88.51
36834;BME280;48003;52.084;5.224;2022-12-24T05:58:49;100927.0;;;12.0;88.23
36834;BME280;48003;52.084;5.224;2022-12-24T06:00:26;100941.0;;;11.74;88.18
36834;BME280;48003;52.084;5.224;2022-12-24T06:02:02;100942.0;;;11.81;89.07
36834;BME280;48003;52.084;5.224;2022-12-24T06:05:15;100942.0;;;11.91;88.45
36834;BME280;48003;52.084;5.224;2022-12-24T06:06:51;100938.0;;;11.84;88.5
36834;BME280;48003;52.084;5.224;2022-12-24T06:08:28;100938.0;;;11.84;87.91
36834;BME280;48003;52.084;5.224;2022-12-24T06:11:43;100939.0;;;11.86;88.79
36834;BME280;48003;52.084;5.224;2022-12-24T06:13:19;100944.0;;;11.76;89.17
36834;BME280;48003;52.084;5.224;2022-12-24T06:14:55;100949.0;;;11.75;89.31
36834;BME280;48003;52.084;5.224;2022-12-24T06:18:08;100941.0;;;12.13;87.09
36834;BME280;48003;52.084;5.224;2022-12-24T06:19:44;100947.0;;;11.96;88.07
36834;BME280;48003;52.084;5.224;2022-12-24T06:21:20;100955.0;;;11.83;88.9
36834;BME280;48003;52.084;5.224;2022-12-24T06:22:57;100952.0;;;12.17;86.92
36834;BME280;48003;52.084;5.224;2022-12-24T06:26:11;100947.0;;;12.19;86.47
36834;BME280;48003;52.084;5.224;2022-12-24T06:27:48;100949.0;;;12.04;86.71
36834;BME280;48003;52.084;5.224;2022-12-24T06:29:24;100957.0;;;11.67;88.21
36834;BME280;48003;52.084;5.224;2022-12-24T06:32:37;100969.0;;;11.96;87.67
36834;BME280;48003;52.084;5.224;2022-12-24T06:34:14;100969.0;;;12.08;87.25
36834;BME280;48003;52.084;5.224;2022-12-24T06:37:26;100968.0;;;11.66;88.52
36834;BME280;48003;52.084;5.224;2022-12-24T06:39:02;100963.0;;;11.73;89.07
36834;BME280;48003;52.084;5.224;2022-12-24T06:40:39;100967.0;;;11.85;87.87
36834;BME280;48003;52.084;5.224;2022-12-24T06:42:16;100973.0;;;12.03;87.65
36834;BME280;48003;52.084;5.224;2022-12-24T06:43:52;100976.0;;;11.84;88.36
36834;BME280;48003;52.084;5.224;2022-12-24T06:47:05;100968.0;;;11.63;89.23
36834;BME280;48003;52.084;5.224;2022-12-24T06:48:42;100989.0;;;11.67;89.02
36834;BME280;48003;52.084;5.224;2022-12-24T06:50:18;100986.0;;;11.9;88.15
36834;BME280;48003;52.084;5.224;2022-12-24T06:53:31;100990.0;;;11.61;89.91
36834;BME280;48003;52.084;5.224;2022-12-24T06:55:09;100978.0;;;11.79;89.11
36834;BME280;48003;52.084;5.224;2022-12-24T06:56:45;100975.0;;;11.79;89.26
36834;BME280;48003;52.084;5.224;2022-12-24T06:59:58;100977.0;;;11.88;88.68
36834;BME280;48003;52.084;5.224;2022-12-24T07:01:35;100984.0;;;11.44;90.14
36834;BME280;48003;52.084;5.224;2022-12-24T07:03:11;100985.0;;;11.93;88.04
36834;BME280;48003;52.084;5.224;2022-12-24T07:04:47;100991.0;;;11.91;88.29
36834;BME280;48003;52.084;5.224;2022-12-24T07:08:03;100984.0;;;11.92;87.72
36834;BME280;48003;52.084;5.224;2022-12-24T07:09:40;100988.0;;;11.94;86.9
36834;BME280;48003;52.084;5.224;2022-12-24T07:11:17;100990.0;;;11.98;86.9
36834;BME280;48003;52.084;5.224;2022-12-24T07:14:29;100982.0;;;12.12;86.25
36834;BME280;48003;52.084;5.224;2022-12-24T07:16:06;100994.0;;;11.81;87.45
36834;BME280;48003;52.084;5.224;2022-12-24T07:17:43;101000.0;;;11.89;86.56
36834;BME280;48003;52.084;5.224;2022-12-24T07:20:55;101003.0;;;12.02;85.82
36834;BME280;48003;52.084;5.224;2022-12-24T07:22:32;101010.0;;;11.78;86.41
36834;BME280;48003;52.084;5.224;2022-12-24T07:24:08;101005.0;;;12.04;85.91
36834;BME280;48003;52.084;5.224;2022-12-24T07:27:21;101012.0;;;11.78;86.74
36834;BME280;48003;52.084;5.224;2022-12-24T07:28:58;101012.0;;;11.91;85.79
36834;BME280;48003;52.084;5.224;2022-12-24T07:30:34;101025.0;;;11.47;87.65
36834;BME280;48003;52.084;5.224;2022-12-24T07:32:10;101025.0;;;12.03;85.76
36834;BME280;48003;52.084;5.224;2022-12-24T07:35:23;101030.0;;;11.81;86.05
36834;BME280;48003;52.084;5.224;2022-12-24T07:36:59;101035.0;;;11.86;86.3
36834;BME280;48003;52.084;5.224;2022-12-24T07:38:35;101041.0;;;11.64;86.91
36834;BME280;48003;52.084;5.224;2022-12-24T07:41:49;101053.0;;;11.43;87.91
36834;BME280;48003;52.084;5.224;2022-12-24T07:43:26;101047.0;;;11.87;86.19
36834;BME280;48003;52.084;5.224;2022-12-24T07:45:03;101050.0;;;11.57;86.98
36834;BME280;48003;52.084;5.224;2022-12-24T07:46:40;101056.0;;;11.32;88.28
36834;BME280;48003;52.084;5.224;2022-12-24T07:49:53;101061.0;;;11.42;88.09
36834;BME280;48003;52.084;5.224;2022-12-24T07:51:30;101067.0;;;11.39;88.48
36834;BME280;48003;52.084;5.224;2022-12-24T07:53:07;101078.0;;;11.47;87.62
36834;BME280;48003;52.084;5.224;2022-12-24T07:56:19;101074.0;;;11.33;88.52
36834;BME280;48003;52.084;5.224;2022-12-24T07:57:55;101086.0;;;11.51;87.69
36834;BME280;48003;52.084;5.224;2022-12-24T07:59:31;101084.0;;;11.43;88.12
36834;BME280;48003;52.084;5.224;2022-12-24T08:02:47;101091.0;;;11.61;87.13
36834;BME280;48003;52.084;5.224;2022-12-24T08:04:23;101091.0;;;11.65;86.65
36834;BME280;48003;52.084;5.224;2022-12-24T08:05:59;101093.0;;;11.33;88.4
36834;BME280;48003;52.084;5.224;2022-12-24T08:07:36;101100.0;;;11.7;86.95
36834;BME280;48003;52.084;5.224;2022-12-24T08:10:49;101098.0;;;11.93;85.79
36834;BME280;48003;52.084;5.224;2022-12-24T08:12:26;101100.0;;;11.58;87.35
36834;BME280;48003;52.084;5.224;2022-12-24T08:14:02;101108.0;;;11.39;87.7
36834;BME280;48003;52.084;5.224;2022-12-24T08:17:14;101108.0;;;11.68;87.14
36834;BME280;48003;52.084;5.224;2022-12-24T08:18:50;101116.0;;;11.81;85.81
36834;BME280;48003;52.084;5.224;2022-12-24T08:20:27;101117.0;;;11.63;86.45
36834;BME280;48003;52.084;5.224;2022-12-24T08:23:39;101121.0;;;11.75;86.35
36834;BME280;48003;52.084;5.224;2022-12-24T08:25:16;101122.0;;;11.7;86.45
36834;BME280;48003;52.084;5.224;2022-12-24T08:26:52;101123.0;;;12.02;85.34
36834;BME280;48003;52.084;5.224;2022-12-24T08:28:29;101125.0;;;12.08;84.9
36834;BME280;48003;52.084;5.224;2022-12-24T08:31:43;101130.0;;;12.24;84.17
36834;BME280;48003;52.084;5.224;2022-12-24T08:33:19;101137.0;;;11.97;84.99
36834;BME280;48003;52.084;5.224;2022-12-24T08:36:31;101131.0;;;12.04;85.46
36834;BME280;48003;52.084;5.224;2022-12-24T08:38:08;101135.0;;;11.85;86.07
36834;BME280;48003;52.084;5.224;2022-12-24T08:39:44;101140.0;;;11.76;87.18
36834;BME280;48003;52.084;5.224;2022-12-24T08:41:20;101140.0;;;11.73;87.34
36834;BME280;48003;52.084;5.224;2022-12-24T08:44:32;101146.0;;;11.97;86.68
36834;BME280;48003;52.084;5.224;2022-12-24T08:46:09;101153.0;;;11.84;87.22
36834;BME280;48003;52.084;5.224;2022-12-24T08:47:46;101159.0;;;11.65;87.97
36834;BME280;48003;52.084;5.224;2022-12-24T08:50:59;101155.0;;;11.68;87.94
36834;BME280;48003;52.084;5.224;2022-12-24T08:52:35;101157.0;;;11.9;87.73
36834;BME280;48003;52.084;5.224;2022-12-24T08:54:11;101160.0;;;12.09;86.45
36834;BME280;48003;52.084;5.224;2022-12-24T08:55:47;101161.0;;;12.07;86.51
36834;BME280;48003;52.084;5.224;2022-12-24T08:59:00;101169.0;;;11.98;86.52
36834;BME280;48003;52.084;5.224;2022-12-24T09:00:36;101166.0;;;11.64;88.25
36834;BME280;48003;52.084;5.224;2022-12-24T09:02:13;101169.0;;;11.51;89.14
36834;BME280;48003;52.084;5.224;2022-12-24T09:05:25;101170.0;;;11.72;88.48
36834;BME280;48003;52.084;5.224;2022-12-24T09:07:02;101178.0;;;11.93;88.08
36834;BME280;48003;52.084;5.224;2022-12-24T09:08:38;101175.0;;;11.64;88.67
36834;BME280;48003;52.084;5.224;2022-12-24T09:10:15;101181.0;;;11.59;89.48
36834;BME280;48003;52.084;5.224;2022-12-24T09:13:27;101185.0;;;11.77;88.28
36834;BME280;48003;52.084;5.224;2022-12-24T09:15:04;101184.0;;;12.15;86.92
36834;BME280;48003;52.084;5.224;2022-12-24T09:16:42;101193.0;;;12.32;86.12
36834;BME280;48003;52.084;5.224;2022-12-24T09:19:54;101194.0;;;12.03;86.86
36834;BME280;48003;52.084;5.224;2022-12-24T09:21:30;101199.0;;;12.26;85.95
36834;BME280;48003;52.084;5.224;2022-12-24T09:23:06;101201.0;;;12.34;85.93
36834;BME280;48003;52.084;5.224;2022-12-24T09:26:20;101209.0;;;12.37;85.63
36834;BME280;48003;52.084;5.224;2022-12-24T09:27:58;101208.0;;;12.34;85.11
36834;BME280;48003;52.084;5.224;2022-12-24T09:29:34;101208.0;;;12.38;85.21
36834;BME280;48003;52.084;5.224;2022-12-24T09:31:11;101205.0;;;12.24;85.88
36834;BME280;48003;52.084;5.224;2022-12-24T09:34:26;101215.0;;;12.09;86.89
36834;BME280;48003;52.084;5.224;2022-12-24T09:36:04;101212.0;;;12.14;86.34
36834;BME280;48003;52.084;5.224;2022-12-24T09:37:41;101214.0;;;12.02;87.35
36834;BME280;48003;52.084;5.224;2022-12-24T09:40:54;101228.0;;;12.02;86.49
36834;BME280;48003;52.084;5.224;2022-12-24T09:42:41;101231.0;;;12.03;86.65
36834;BME280;48003;52.084;5.224;2022-12-24T09:44:33;101230.0;;;12.05;87.13
36834;BME280;48003;52.084;5.224;2022-12-24T09:46:20;101241.0;;;12.2;86.05
36834;BME280;48003;52.084;5.224;2022-12-24T09:48:01;101230.0;;;12.38;85.04
36834;BME280;48003;52.084;5.224;2022-12-24T09:51:27;101242.0;;;12.24;85.68
36834;BME280;48003;52.084;5.224;2022-12-24T09:53:11;101240.0;;;12.27;85.4
36834;BME280;48003;52.084;5.224;2022-12-24T09:55:04;101241.0;;;12.42;84.88
36834;BME280;48003;52.084;5.224;2022-12-24T09:56:44;101239.0;;;12.58;84.16
36834;BME280;48003;52.084;5.224;2022-12-24T09:58:26;101245.0;;;12.58;83.92
36834;BME280;48003;52.084;5.224;2022-12-24T10:01:54;101244.0;;;12.47;84.51
36834;BME280;48003;52.084;5.224;2022-12-24T10:03:30;101255.0;;;12.5;84.25
36834;BME280;48003;52.084;5.224;2022-12-24T10:05:12;101248.0;;;12.63;83.88
36834;BME280;48003;52.084;5.224;2022-12-24T10:06:54;101253.0;;;12.58;83.43
36834;BME280;48003;52.084;5.224;2022-12-24T10:10:33;101249.0;;;12.48;83.31
36834;BME280;48003;52.084;5.224;2022-12-24T10:12:16;101257.0;;;12.63;83.54
36834;BME280;48003;52.084;5.224;2022-12-24T10:14:07;101253.0;;;12.59;83.51
36834;BME280;48003;52.084;5.224;2022-12-24T10:15:53;101251.0;;;12.59;83.26
36834;BME280;48003;52.084;5.224;2022-12-24T10:17:46;101258.0;;;12.39;84.17
36834;BME280;48003;52.084;5.224;2022-12-24T10:19:35;101255.0;;;12.57;83.57
36834;BME280;48003;52.084;5.224;2022-12-24T10:23:16;101263.0;;;12.49;83.3
36834;BME280;48003;52.084;5.224;2022-12-24T10:24:58;101259.0;;;12.63;83.2
36834;BME280;48003;52.084;5.224;2022-12-24T10:26:43;101257.0;;;12.54;83.42
36834;BME280;48003;52.084;5.224;2022-12-24T10:28:31;101259.0;;;12.67;82.79
36834;BME280;48003;52.084;5.224;2022-12-24T10:30:17;101259.0;;;12.8;82.21
36834;BME280;48003;52.084;5.224;2022-12-24T10:32:00;101259.0;;;12.94;81.38
36834;BME280;48003;52.084;5.224;2022-12-24T10:35:33;101261.0;;;12.65;82.52
36834;BME280;48003;52.084;5.224;2022-12-24T10:37:18;101258.0;;;13.04;81.31
36834;BME280;48003;52.084;5.224;2022-12-24T10:38:58;101262.0;;;12.46;83.56
36834;BME280;48003;52.084;5.224;2022-12-24T10:40:39;101265.0;;;12.68;83.05
36834;BME280;48003;52.084;5.224;2022-12-24T10:42:19;101270.0;;;12.71;82.32
36834;BME280;48003;52.084;5.224;2022-12-24T10:45:36;101273.0;;;12.73;82.4
36834;BME280;48003;52.084;5.224;2022-12-24T10:47:19;101280.0;;;12.96;81.84
36834;BME280;48003;52.084;5.224;2022-12-24T10:48:59;101265.0;;;12.6;83.88
36834;BME280;48003;52.084;5.224;2022-12-24T10:52:20;101271.0;;;12.68;83.13
36834;BME280;48003;52.084;5.224;2022-12-24T10:54:00;101268.0;;;12.55;83.53
36834;BME280;48003;52.084;5.224;2022-12-24T10:55:41;101267.0;;;12.65;83.2
36834;BME280;48003;52.084;5.224;2022-12-24T10:57:22;101274.0;;;12.82;82.45
36834;BME280;48003;52.084;5.224;2022-12-24T10:59:00;101275.0;;;12.84;81.93
36834;BME280;48003;52.084;5.224;2022-12-24T11:02:26;101277.0;;;12.89;81.77
36834;BME280;48003;52.084;5.224;2022-12-24T11:04:04;101277.0;;;12.91;82.47
36834;BME280;48003;52.084;5.224;2022-12-24T11:05:40;101276.0;;;12.49;84.02
36834;BME280;48003;52.084;5.224;2022-12-24T11:09:11;101280.0;;;12.34;84.43
36834;BME280;48003;52.084;5.224;2022-12-24T11:10:57;101277.0;;;12.79;82.73
36834;BME280;48003;52.084;5.224;2022-12-24T11:12:38;101271.0;;;12.71;82.05